sensor_id;sensor_type;location;lat;lon;timestamp;pressure;altitude;pressure_sealevel;temperature;humidity
56658;BME280;42530;52.240;19.354;2022-08-19T00:00:17;52961.34;;;-144.69;55.79
56658;BME280;42530;52.240;19.354;2022-08-19T00:02:43;53011.28;;;-144.69;55.98
56658;BME280;42530;52.240;19.354;2022-08-19T00:05:10;52977.97;;;-144.69;56.24
56658;BME280;42530;52.240;19.354;2022-08-19T00:07:36;52998.78;;;-144.69;56.38
56658;BME280;42530;52.240;19.354;2022-08-19T00:10:05;52982.16;;;-144.69;56.21
56658;BME280;42530;52.240;19.354;2022-08-19T00:12:31;52982.16;;;-144.69;56.13
56658;BME280;42530;52.240;19.354;2022-08-19T00:14:56;53019.59;;;-144.69;56.24
56658;BME280;42530;52.240;19.354;2022-08-19T00:17:22;52994.63;;;-144.69;56.25
56658;BME280;42530;52.240;19.354;2022-08-19T00:19:48;52969.66;;;-144.69;56.33
56658;BME280;42530;52.240;19.354;2022-08-19T00:22:14;52990.47;;;-144.69;56.24
56658;BME280;42530;52.240;19.354;2022-08-19T00:24:40;52992.53;;;-144.69;56.15
56658;BME280;42530;52.240;19.354;2022-08-19T00:27:06;52982.16;;;-144.69;56.33
56658;BME280;42530;52.240;19.354;2022-08-19T00:29:32;52953.00;;;-144.69;56.46
56658;BME280;42530;52.240;19.354;2022-08-19T00:31:58;53027.91;;;-144.69;56.60
56658;BME280;42530;52.240;19.354;2022-08-19T00:34:25;53034.16;;;-144.69;56.94
56658;BME280;42530;52.240;19.354;2022-08-19T00:36:52;52986.31;;;-144.69;56.84
56658;BME280;42530;52.240;19.354;2022-08-19T00:39:17;53000.88;;;-144.69;57.00
56658;BME280;42530;52.240;19.354;2022-08-19T00:41:44;53002.94;;;-144.69;56.89
56658;BME280;42530;52.240;19.354;2022-08-19T00:44:18;53025.84;;;-144.69;56.91
56658;BME280;42530;52.240;19.354;2022-08-19T00:46:48;52986.31;;;-144.69;57.20
56658;BME280;42530;52.240;19.354;2022-08-19T00:49:22;52996.72;;;-144.69;57.30
56658;BME280;42530;52.240;19.354;2022-08-19T00:51:54;53005.03;;;-144.69;57.24
56658;BME280;42530;52.240;19.354;2022-08-19T00:54:21;52971.75;;;-144.69;57.61
56658;BME280;42530;52.240;19.354;2022-08-19T00:56:48;52973.81;;;-144.69;57.60
56658;BME280;42530;52.240;19.354;2022-08-19T00:59:16;52982.16;;;-144.69;58.22
56658;BME280;42530;52.240;19.354;2022-08-19T01:01:43;52984.22;;;-144.69;58.15
56658;BME280;42530;52.240;19.354;2022-08-19T01:04:09;53017.50;;;-144.69;57.86
56658;BME280;42530;52.240;19.354;2022-08-19T01:06:39;53002.94;;;-144.69;58.45
56658;BME280;42530;52.240;19.354;2022-08-19T01:09:06;53013.34;;;-144.69;58.48
56658;BME280;42530;52.240;19.354;2022-08-19T01:11:36;53019.59;;;-144.69;58.55
56658;BME280;42530;52.240;19.354;2022-08-19T01:14:03;52977.97;;;-144.69;58.53
56658;BME280;42530;52.240;19.354;2022-08-19T01:16:29;53015.44;;;-144.69;58.54
56658;BME280;42530;52.240;19.354;2022-08-19T01:18:55;53009.19;;;-144.69;58.56
56658;BME280;42530;52.240;19.354;2022-08-19T01:21:28;52973.81;;;-144.69;58.42
56658;BME280;42530;52.240;19.354;2022-08-19T01:23:55;53002.94;;;-144.69;58.37
56658;BME280;42530;52.240;19.354;2022-08-19T01:26:23;53036.22;;;-144.69;58.41
56658;BME280;42530;52.240;19.354;2022-08-19T01:28:53;53036.22;;;-144.69;58.52
56658;BME280;42530;52.240;19.354;2022-08-19T01:31:23;53007.09;;;-144.69;58.39
56658;BME280;42530;52.240;19.354;2022-08-19T01:33:51;53002.94;;;-144.69;58.26
56658;BME280;42530;52.240;19.354;2022-08-19T01:36:26;52982.16;;;-144.69;58.03
56658;BME280;42530;52.240;19.354;2022-08-19T01:38:52;53042.47;;;-144.69;58.26
56658;BME280;42530;52.240;19.354;2022-08-19T01:41:18;52998.78;;;-144.69;58.42
56658;BME280;42530;52.240;19.354;2022-08-19T01:43:44;53019.59;;;-144.69;58.56
56658;BME280;42530;52.240;19.354;2022-08-19T01:46:10;53015.44;;;-144.69;58.49
56658;BME280;42530;52.240;19.354;2022-08-19T01:48:39;53023.75;;;-144.69;58.66
56658;BME280;42530;52.240;19.354;2022-08-19T01:51:06;53030.00;;;-144.69;58.90
56658;BME280;42530;52.240;19.354;2022-08-19T01:53:32;53007.09;;;-144.69;58.91
56658;BME280;42530;52.240;19.354;2022-08-19T01:55:58;53013.34;;;-144.69;59.28
56658;BME280;42530;52.240;19.354;2022-08-19T01:58:29;52965.50;;;-144.69;59.01
56658;BME280;42530;52.240;19.354;2022-08-19T02:00:56;53005.03;;;-144.69;59.07
56658;BME280;42530;52.240;19.354;2022-08-19T02:03:22;52992.53;;;-144.69;58.88
56658;BME280;42530;52.240;19.354;2022-08-19T02:05:48;53017.50;;;-144.69;59.15
56658;BME280;42530;52.240;19.354;2022-08-19T02:08:18;53030.00;;;-144.69;58.90
56658;BME280;42530;52.240;19.354;2022-08-19T02:10:44;53007.09;;;-144.69;59.10
56658;BME280;42530;52.240;19.354;2022-08-19T02:13:11;53034.16;;;-144.69;59.02
56658;BME280;42530;52.240;19.354;2022-08-19T02:15:37;53034.16;;;-144.69;58.81
56658;BME280;42530;52.240;19.354;2022-08-19T02:18:03;52990.47;;;-144.69;58.88
56658;BME280;42530;52.240;19.354;2022-08-19T02:20:28;53015.44;;;-144.69;58.91
56658;BME280;42530;52.240;19.354;2022-08-19T02:22:54;52973.81;;;-144.69;59.10
56658;BME280;42530;52.240;19.354;2022-08-19T02:25:20;52992.53;;;-144.69;59.02
56658;BME280;42530;52.240;19.354;2022-08-19T02:27:45;53034.16;;;-144.69;59.25
56658;BME280;42530;52.240;19.354;2022-08-19T02:30:14;52996.72;;;-144.69;59.42
56658;BME280;42530;52.240;19.354;2022-08-19T02:32:41;53027.91;;;-144.69;59.64
56658;BME280;42530;52.240;19.354;2022-08-19T02:35:07;52998.78;;;-144.69;59.54
56658;BME280;42530;52.240;19.354;2022-08-19T02:37:33;53019.59;;;-144.69;59.63
56658;BME280;42530;52.240;19.354;2022-08-19T02:40:18;53023.75;;;-144.69;59.55
56658;BME280;42530;52.240;19.354;2022-08-19T02:42:44;53032.06;;;-144.69;59.58
56658;BME280;42530;52.240;19.354;2022-08-19T02:45:12;53023.75;;;-144.69;59.38
56658;BME280;42530;52.240;19.354;2022-08-19T02:47:38;53021.66;;;-144.69;59.26
56658;BME280;42530;52.240;19.354;2022-08-19T02:50:05;52994.63;;;-144.69;59.19
56658;BME280;42530;52.240;19.354;2022-08-19T02:52:32;53036.22;;;-144.69;59.21
56658;BME280;42530;52.240;19.354;2022-08-19T02:54:58;52994.63;;;-144.69;59.44
56658;BME280;42530;52.240;19.354;2022-08-19T02:57:24;53019.59;;;-144.69;59.21
56658;BME280;42530;52.240;19.354;2022-08-19T02:59:49;52996.72;;;-144.69;59.26
56658;BME280;42530;52.240;19.354;2022-08-19T03:02:15;53023.75;;;-144.69;59.15
56658;BME280;42530;52.240;19.354;2022-08-19T03:04:41;53019.59;;;-144.69;59.05
56658;BME280;42530;52.240;19.354;2022-08-19T03:07:08;53027.91;;;-144.69;59.15
56658;BME280;42530;52.240;19.354;2022-08-19T03:09:37;52982.16;;;-144.69;59.28
56658;BME280;42530;52.240;19.354;2022-08-19T03:12:04;53015.44;;;-144.69;59.33
56658;BME280;42530;52.240;19.354;2022-08-19T03:14:33;53048.72;;;-144.69;59.61
56658;BME280;42530;52.240;19.354;2022-08-19T03:16:59;52992.53;;;-144.69;59.35
56658;BME280;42530;52.240;19.354;2022-08-19T03:19:24;53002.94;;;-144.69;59.58
56658;BME280;42530;52.240;19.354;2022-08-19T03:21:51;53009.19;;;-144.69;59.62
56658;BME280;42530;52.240;19.354;2022-08-19T03:24:18;53011.28;;;-144.69;59.56
56658;BME280;42530;52.240;19.354;2022-08-19T03:26:47;53023.75;;;-144.69;59.35
56658;BME280;42530;52.240;19.354;2022-08-19T03:29:13;53007.09;;;-144.69;59.76
56658;BME280;42530;52.240;19.354;2022-08-19T03:31:40;53048.72;;;-144.69;59.80
56658;BME280;42530;52.240;19.354;2022-08-19T03:34:06;52998.78;;;-144.69;59.81
56658;BME280;42530;52.240;19.354;2022-08-19T03:36:32;53021.66;;;-144.69;59.58
56658;BME280;42530;52.240;19.354;2022-08-19T03:39:00;52998.78;;;-144.69;59.86
56658;BME280;42530;52.240;19.354;2022-08-19T03:41:38;53032.06;;;-144.69;59.62
56658;BME280;42530;52.240;19.354;2022-08-19T03:44:03;52996.72;;;-144.69;59.57
56658;BME280;42530;52.240;19.354;2022-08-19T03:46:32;53025.84;;;-144.69;59.41
56658;BME280;42530;52.240;19.354;2022-08-19T03:48:58;53015.44;;;-144.69;59.47
56658;BME280;42530;52.240;19.354;2022-08-19T03:51:26;53030.00;;;-144.69;59.57
56658;BME280;42530;52.240;19.354;2022-08-19T03:53:52;53025.84;;;-144.69;59.60
56658;BME280;42530;52.240;19.354;2022-08-19T03:56:19;53077.84;;;-144.69;59.64
56658;BME280;42530;52.240;19.354;2022-08-19T03:58:45;53027.91;;;-144.69;59.53
56658;BME280;42530;52.240;19.354;2022-08-19T04:01:15;53044.56;;;-144.69;59.58
56658;BME280;42530;52.240;19.354;2022-08-19T04:03:42;53042.47;;;-144.69;59.57
56658;BME280;42530;52.240;19.354;2022-08-19T04:06:16;53040.41;;;-144.69;59.18
56658;BME280;42530;52.240;19.354;2022-08-19T04:08:43;53019.59;;;-144.69;59.15
56658;BME280;42530;52.240;19.354;2022-08-19T04:11:11;53021.66;;;-144.69;58.99
56658;BME280;42530;52.240;19.354;2022-08-19T04:13:37;53048.72;;;-144.69;58.85
56658;BME280;42530;52.240;19.354;2022-08-19T04:16:04;53036.22;;;-144.69;58.72
56658;BME280;42530;52.240;19.354;2022-08-19T04:18:31;53025.84;;;-144.69;58.66
56658;BME280;42530;52.240;19.354;2022-08-19T04:20:58;53063.28;;;-144.69;58.66
56658;BME280;42530;52.240;19.354;2022-08-19T04:23:23;53011.28;;;-144.69;58.53
56658;BME280;42530;52.240;19.354;2022-08-19T04:25:49;53032.06;;;-144.69;58.49
56658;BME280;42530;52.240;19.354;2022-08-19T04:28:14;53040.41;;;-144.69;58.22
56658;BME280;42530;52.240;19.354;2022-08-19T04:30:43;53027.91;;;-144.69;57.97
56658;BME280;42530;52.240;19.354;2022-08-19T04:33:10;53027.91;;;-144.69;57.72
56658;BME280;42530;52.240;19.354;2022-08-19T04:35:40;53048.72;;;-144.69;57.72
56658;BME280;42530;52.240;19.354;2022-08-19T04:38:08;53019.59;;;-144.69;57.52
56658;BME280;42530;52.240;19.354;2022-08-19T04:40:34;53048.72;;;-144.69;57.42
56658;BME280;42530;52.240;19.354;2022-08-19T04:43:18;53025.84;;;-144.69;57.23
56658;BME280;42530;52.240;19.354;2022-08-19T04:45:45;53032.06;;;-144.69;57.13
56658;BME280;42530;52.240;19.354;2022-08-19T04:48:12;53036.22;;;-144.69;56.88
56658;BME280;42530;52.240;19.354;2022-08-19T04:50:42;53050.78;;;-144.69;56.57
56658;BME280;42530;52.240;19.354;2022-08-19T04:53:08;53030.00;;;-144.69;56.60
56658;BME280;42530;52.240;19.354;2022-08-19T04:55:34;53040.41;;;-144.69;56.18
56658;BME280;42530;52.240;19.354;2022-08-19T04:58:00;53011.28;;;-144.69;56.27
56658;BME280;42530;52.240;19.354;2022-08-19T05:00:27;53036.22;;;-144.69;55.85
56658;BME280;42530;52.240;19.354;2022-08-19T05:02:52;53027.91;;;-144.69;55.99
56658;BME280;42530;52.240;19.354;2022-08-19T05:05:18;53027.91;;;-144.69;55.44
56658;BME280;42530;52.240;19.354;2022-08-19T05:07:45;53052.88;;;-144.69;55.48
56658;BME280;42530;52.240;19.354;2022-08-19T05:10:11;53071.59;;;-144.69;55.29
56658;BME280;42530;52.240;19.354;2022-08-19T05:12:38;53017.50;;;-144.69;54.88
56658;BME280;42530;52.240;19.354;2022-08-19T05:15:05;53054.97;;;-144.69;55.01
56658;BME280;42530;52.240;19.354;2022-08-19T05:17:34;53015.44;;;-144.69;55.30
56658;BME280;42530;52.240;19.354;2022-08-19T05:20:00;53032.06;;;-144.69;54.63
56658;BME280;42530;52.240;19.354;2022-08-19T05:22:46;53036.22;;;-144.69;54.62
56658;BME280;42530;52.240;19.354;2022-08-19T05:25:20;53027.91;;;-144.69;54.54
56658;BME280;42530;52.240;19.354;2022-08-19T05:27:47;53052.88;;;-144.69;54.06
56658;BME280;42530;52.240;19.354;2022-08-19T05:30:13;53065.34;;;-144.69;53.61
56658;BME280;42530;52.240;19.354;2022-08-19T05:32:39;53027.91;;;-144.69;53.44
56658;BME280;42530;52.240;19.354;2022-08-19T05:35:05;53036.22;;;-144.69;53.03
56658;BME280;42530;52.240;19.354;2022-08-19T05:37:31;53025.84;;;-144.69;52.72
56658;BME280;42530;52.240;19.354;2022-08-19T05:39:56;53038.31;;;-144.69;52.47
56658;BME280;42530;52.240;19.354;2022-08-19T05:42:22;53017.50;;;-144.69;52.54
56658;BME280;42530;52.240;19.354;2022-08-19T05:44:49;53040.41;;;-144.69;52.33
56658;BME280;42530;52.240;19.354;2022-08-19T05:47:15;53077.84;;;-144.69;52.13
56658;BME280;42530;52.240;19.354;2022-08-19T05:49:41;53046.63;;;-144.69;51.91
56658;BME280;42530;52.240;19.354;2022-08-19T05:52:09;53040.41;;;-144.69;51.45
56658;BME280;42530;52.240;19.354;2022-08-19T05:54:37;53048.72;;;-144.69;51.25
56658;BME280;42530;52.240;19.354;2022-08-19T05:57:05;53034.16;;;-144.69;50.94
56658;BME280;42530;52.240;19.354;2022-08-19T05:59:31;53023.75;;;-144.69;50.63
56658;BME280;42530;52.240;19.354;2022-08-19T06:01:56;53046.63;;;-144.69;50.27
56658;BME280;42530;52.240;19.354;2022-08-19T06:04:23;53023.75;;;-144.69;49.91
56658;BME280;42530;52.240;19.354;2022-08-19T06:06:50;53057.03;;;-144.69;49.26
56658;BME280;42530;52.240;19.354;2022-08-19T06:09:17;53048.72;;;-144.69;49.36
56658;BME280;42530;52.240;19.354;2022-08-19T06:12:01;53044.56;;;-144.69;49.38
56658;BME280;42530;52.240;19.354;2022-08-19T06:14:30;53044.56;;;-144.69;49.22
56658;BME280;42530;52.240;19.354;2022-08-19T06:16:57;53042.47;;;-144.69;48.84
56658;BME280;42530;52.240;19.354;2022-08-19T06:19:25;53019.59;;;-144.69;48.62
56658;BME280;42530;52.240;19.354;2022-08-19T06:21:52;53050.78;;;-144.69;48.58
56658;BME280;42530;52.240;19.354;2022-08-19T06:24:20;53075.75;;;-144.69;48.40
56658;BME280;42530;52.240;19.354;2022-08-19T06:26:47;53040.41;;;-144.69;47.95
56658;BME280;42530;52.240;19.354;2022-08-19T06:29:16;53061.19;;;-144.69;47.82
56658;BME280;42530;52.240;19.354;2022-08-19T06:31:44;53092.41;;;-144.69;47.79
56658;BME280;42530;52.240;19.354;2022-08-19T06:34:10;53036.22;;;-144.69;47.92
56658;BME280;42530;52.240;19.354;2022-08-19T06:36:38;53002.94;;;-144.69;47.97
56658;BME280;42530;52.240;19.354;2022-08-19T06:39:13;53038.31;;;-144.69;47.63
56658;BME280;42530;52.240;19.354;2022-08-19T06:41:42;53042.47;;;-144.69;47.86
56658;BME280;42530;52.240;19.354;2022-08-19T06:44:09;53057.03;;;-144.69;47.44
56658;BME280;42530;52.240;19.354;2022-08-19T06:46:36;53054.97;;;-144.69;46.97
56658;BME280;42530;52.240;19.354;2022-08-19T06:49:02;53065.34;;;-144.69;47.15
56658;BME280;42530;52.240;19.354;2022-08-19T06:51:28;53077.84;;;-144.69;46.81
56658;BME280;42530;52.240;19.354;2022-08-19T06:53:54;53065.34;;;-144.69;46.76
56658;BME280;42530;52.240;19.354;2022-08-19T06:56:23;53057.03;;;-144.69;46.67
56658;BME280;42530;52.240;19.354;2022-08-19T06:58:51;53054.97;;;-144.69;46.46
56658;BME280;42530;52.240;19.354;2022-08-19T07:01:19;53086.16;;;-144.69;46.16
56658;BME280;42530;52.240;19.354;2022-08-19T07:03:44;53057.03;;;-144.69;46.33
56658;BME280;42530;52.240;19.354;2022-08-19T07:06:14;53063.28;;;-144.69;45.62
56658;BME280;42530;52.240;19.354;2022-08-19T07:08:42;53082.00;;;-144.69;45.15
56658;BME280;42530;52.240;19.354;2022-08-19T07:11:10;53086.16;;;-144.69;45.01
56658;BME280;42530;52.240;19.354;2022-08-19T07:13:37;53052.88;;;-144.69;44.94
56658;BME280;42530;52.240;19.354;2022-08-19T07:16:11;53102.81;;;-144.69;45.18
56658;BME280;42530;52.240;19.354;2022-08-19T07:18:38;53073.69;;;-144.69;44.01
56658;BME280;42530;52.240;19.354;2022-08-19T07:21:08;53090.31;;;-144.69;44.16
56658;BME280;42530;52.240;19.354;2022-08-19T07:23:35;53121.53;;;-144.69;44.08
56658;BME280;42530;52.240;19.354;2022-08-19T07:28:37;53129.84;;;-144.69;43.49
56658;BME280;42530;52.240;19.354;2022-08-19T07:31:07;53052.88;;;-144.69;43.07
56658;BME280;42530;52.240;19.354;2022-08-19T07:33:34;53098.66;;;-144.69;43.01
56658;BME280;42530;52.240;19.354;2022-08-19T07:36:03;53090.31;;;-144.69;41.94
56658;BME280;42530;52.240;19.354;2022-08-19T07:38:30;53100.72;;;-144.69;41.84
56658;BME280;42530;52.240;19.354;2022-08-19T07:40:56;53071.59;;;-144.69;41.65
56658;BME280;42530;52.240;19.354;2022-08-19T07:43:21;53117.38;;;-144.69;41.72
56658;BME280;42530;52.240;19.354;2022-08-19T07:45:51;53096.56;;;-144.69;41.42
56658;BME280;42530;52.240;19.354;2022-08-19T07:48:18;53100.72;;;-144.69;41.20
56658;BME280;42530;52.240;19.354;2022-08-19T07:50:43;53119.44;;;-144.69;41.20
56658;BME280;42530;52.240;19.354;2022-08-19T07:53:09;53073.69;;;-144.69;40.88
56658;BME280;42530;52.240;19.354;2022-08-19T07:55:34;53079.91;;;-144.69;41.05
56658;BME280;42530;52.240;19.354;2022-08-19T07:58:00;53094.47;;;-144.69;40.15
56658;BME280;42530;52.240;19.354;2022-08-19T08:00:26;53111.13;;;-144.69;40.20
56658;BME280;42530;52.240;19.354;2022-08-19T08:02:52;53092.41;;;-144.69;39.43
56658;BME280;42530;52.240;19.354;2022-08-19T08:05:18;53123.63;;;-144.69;38.65
56658;BME280;42530;52.240;19.354;2022-08-19T08:08:02;53094.47;;;-144.69;37.89
56658;BME280;42530;52.240;19.354;2022-08-19T08:10:47;53119.44;;;-144.69;37.52
56658;BME280;42530;52.240;19.354;2022-08-19T08:13:12;53111.13;;;-144.69;37.68
56658;BME280;42530;52.240;19.354;2022-08-19T08:15:38;53092.41;;;-144.69;36.97
56658;BME280;42530;52.240;19.354;2022-08-19T08:18:04;53121.53;;;-144.69;36.62
56658;BME280;42530;52.240;19.354;2022-08-19T08:20:29;53104.88;;;-144.69;36.65
56658;BME280;42530;52.240;19.354;2022-08-19T08:22:55;53048.72;;;-144.69;35.54
56658;BME280;42530;52.240;19.354;2022-08-19T08:25:39;53086.16;;;-144.69;35.96
56658;BME280;42530;52.240;19.354;2022-08-19T08:28:05;53090.31;;;-144.69;35.32
56658;BME280;42530;52.240;19.354;2022-08-19T08:30:33;53100.72;;;-144.69;34.62
56658;BME280;42530;52.240;19.354;2022-08-19T08:33:01;53059.13;;;-144.69;34.67
56658;BME280;42530;52.240;19.354;2022-08-19T08:35:26;53102.81;;;-144.69;33.97
56658;BME280;42530;52.240;19.354;2022-08-19T08:37:53;53090.31;;;-144.69;33.97
56658;BME280;42530;52.240;19.354;2022-08-19T08:43:06;53067.44;;;-144.69;33.86
56658;BME280;42530;52.240;19.354;2022-08-19T08:45:41;53098.66;;;-144.69;32.77
56658;BME280;42530;52.240;19.354;2022-08-19T08:48:22;53042.47;;;-144.69;32.46
56658;BME280;42530;52.240;19.354;2022-08-19T08:50:50;53050.78;;;-144.69;31.68
56658;BME280;42530;52.240;19.354;2022-08-19T08:53:19;53079.91;;;-144.69;31.32
56658;BME280;42530;52.240;19.354;2022-08-19T08:55:45;53044.56;;;-144.69;31.12
56658;BME280;42530;52.240;19.354;2022-08-19T08:58:26;53069.53;;;-144.69;32.26
56658;BME280;42530;52.240;19.354;2022-08-19T09:00:54;53082.00;;;-144.69;31.36
56658;BME280;42530;52.240;19.354;2022-08-19T09:03:22;53086.16;;;-144.69;31.88
56658;BME280;42530;52.240;19.354;2022-08-19T09:06:09;53106.97;;;-144.69;31.17
56658;BME280;42530;52.240;19.354;2022-08-19T09:11:22;53052.88;;;-144.69;31.07
56658;BME280;42530;52.240;19.354;2022-08-19T09:14:07;53057.03;;;-144.69;30.65
56658;BME280;42530;52.240;19.354;2022-08-19T09:16:35;53075.75;;;-144.69;30.50
56658;BME280;42530;52.240;19.354;2022-08-19T09:19:05;53057.03;;;-144.69;29.96
56658;BME280;42530;52.240;19.354;2022-08-19T09:21:31;53046.63;;;-144.69;30.36
56658;BME280;42530;52.240;19.354;2022-08-19T09:23:57;53046.63;;;-144.69;30.05
56658;BME280;42530;52.240;19.354;2022-08-19T09:26:24;53090.31;;;-144.69;30.48
56658;BME280;42530;52.240;19.354;2022-08-19T09:28:52;53061.19;;;-144.69;30.27
56658;BME280;42530;52.240;19.354;2022-08-19T09:31:23;53046.63;;;-144.69;29.85
56658;BME280;42530;52.240;19.354;2022-08-19T09:33:50;53115.28;;;-144.69;30.26
56658;BME280;42530;52.240;19.354;2022-08-19T09:36:18;53077.84;;;-144.69;30.08
56658;BME280;42530;52.240;19.354;2022-08-19T09:38:45;53048.72;;;-144.69;30.08
56658;BME280;42530;52.240;19.354;2022-08-19T09:41:17;53044.56;;;-144.69;29.45
56658;BME280;42530;52.240;19.354;2022-08-19T09:43:46;53054.97;;;-144.69;29.97
56658;BME280;42530;52.240;19.354;2022-08-19T09:46:12;53088.25;;;-144.69;29.74
56658;BME280;42530;52.240;19.354;2022-08-19T09:48:39;53050.78;;;-144.69;28.55
56658;BME280;42530;52.240;19.354;2022-08-19T09:51:08;53057.03;;;-144.69;28.34
56658;BME280;42530;52.240;19.354;2022-08-19T09:53:38;53032.06;;;-144.69;27.83
56658;BME280;42530;52.240;19.354;2022-08-19T09:56:05;53065.34;;;-144.69;27.26
56658;BME280;42530;52.240;19.354;2022-08-19T09:58:32;53032.06;;;-144.69;26.90
56658;BME280;42530;52.240;19.354;2022-08-19T10:00:59;53007.09;;;-144.69;27.75
56658;BME280;42530;52.240;19.354;2022-08-19T10:03:26;53065.34;;;-144.69;27.38
56658;BME280;42530;52.240;19.354;2022-08-19T10:05:53;53040.41;;;-144.69;27.71
56658;BME280;42530;52.240;19.354;2022-08-19T10:08:22;53048.72;;;-144.69;27.46
56658;BME280;42530;52.240;19.354;2022-08-19T10:10:49;53040.41;;;-144.69;27.38
56658;BME280;42530;52.240;19.354;2022-08-19T10:13:19;53057.03;;;-144.69;27.58
56658;BME280;42530;52.240;19.354;2022-08-19T10:15:48;53057.03;;;-144.69;27.04
56658;BME280;42530;52.240;19.354;2022-08-19T10:18:16;53054.97;;;-144.69;26.71
56658;BME280;42530;52.240;19.354;2022-08-19T10:20:47;53050.78;;;-144.69;26.87
56658;BME280;42530;52.240;19.354;2022-08-19T10:23:14;53052.88;;;-144.69;27.09
56658;BME280;42530;52.240;19.354;2022-08-19T10:25:41;53073.69;;;-144.69;27.16
56658;BME280;42530;52.240;19.354;2022-08-19T10:28:07;53065.34;;;-144.69;27.04
56658;BME280;42530;52.240;19.354;2022-08-19T10:30:33;53046.63;;;-144.69;26.68
56658;BME280;42530;52.240;19.354;2022-08-19T10:33:00;53052.88;;;-144.69;26.69
56658;BME280;42530;52.240;19.354;2022-08-19T10:35:25;53057.03;;;-144.69;27.14
56658;BME280;42530;52.240;19.354;2022-08-19T10:37:55;53046.63;;;-144.69;27.65
56658;BME280;42530;52.240;19.354;2022-08-19T10:40:27;53061.19;;;-144.69;26.82
56658;BME280;42530;52.240;19.354;2022-08-19T10:42:54;53023.75;;;-144.69;26.44
56658;BME280;42530;52.240;19.354;2022-08-19T10:45:21;53038.31;;;-144.69;26.65
56658;BME280;42530;52.240;19.354;2022-08-19T10:47:52;53027.91;;;-144.69;26.74
56658;BME280;42530;52.240;19.354;2022-08-19T10:50:18;53052.88;;;-144.69;26.84
56658;BME280;42530;52.240;19.354;2022-08-19T10:53:07;53042.47;;;-144.69;26.43
56658;BME280;42530;52.240;19.354;2022-08-19T10:55:35;53002.94;;;-144.69;26.20
56658;BME280;42530;52.240;19.354;2022-08-19T10:58:21;53044.56;;;-144.69;26.18
56658;BME280;42530;52.240;19.354;2022-08-19T11:00:55;53044.56;;;-144.69;25.81
56658;BME280;42530;52.240;19.354;2022-08-19T11:03:22;53036.22;;;-144.69;25.89
56658;BME280;42530;52.240;19.354;2022-08-19T11:05:59;53054.97;;;-144.69;26.34
56658;BME280;42530;52.240;19.354;2022-08-19T11:08:24;53023.75;;;-144.69;26.36
56658;BME280;42530;52.240;19.354;2022-08-19T11:10:53;53027.91;;;-144.69;25.50
56658;BME280;42530;52.240;19.354;2022-08-19T11:13:30;53005.03;;;-144.69;25.84
56658;BME280;42530;52.240;19.354;2022-08-19T11:16:00;53036.22;;;-144.69;25.41
56658;BME280;42530;52.240;19.354;2022-08-19T11:18:26;52998.78;;;-144.69;25.50
56658;BME280;42530;52.240;19.354;2022-08-19T11:20:52;52986.31;;;-144.69;25.43
56658;BME280;42530;52.240;19.354;2022-08-19T11:23:17;52990.47;;;-144.69;25.46
56658;BME280;42530;52.240;19.354;2022-08-19T11:25:43;52992.53;;;-144.69;25.57
56658;BME280;42530;52.240;19.354;2022-08-19T11:28:11;53038.31;;;-144.69;25.49
56658;BME280;42530;52.240;19.354;2022-08-19T11:30:37;53023.75;;;-144.69;26.01
56658;BME280;42530;52.240;19.354;2022-08-19T11:33:03;52994.63;;;-144.69;25.20
56658;BME280;42530;52.240;19.354;2022-08-19T11:35:28;53009.19;;;-144.69;25.48
56658;BME280;42530;52.240;19.354;2022-08-19T11:37:54;53036.22;;;-144.69;26.29
56658;BME280;42530;52.240;19.354;2022-08-19T11:40:21;53027.91;;;-144.69;26.11
56658;BME280;42530;52.240;19.354;2022-08-19T11:42:46;53023.75;;;-144.69;25.54
56658;BME280;42530;52.240;19.354;2022-08-19T11:45:26;53044.56;;;-144.69;26.04
56658;BME280;42530;52.240;19.354;2022-08-19T11:47:52;53019.59;;;-144.69;25.90
56658;BME280;42530;52.240;19.354;2022-08-19T11:50:19;53032.06;;;-144.69;25.87
56658;BME280;42530;52.240;19.354;2022-08-19T11:52:44;53030.00;;;-144.69;26.18
56658;BME280;42530;52.240;19.354;2022-08-19T11:55:12;53002.94;;;-144.69;26.11
56658;BME280;42530;52.240;19.354;2022-08-19T11:57:38;53005.03;;;-144.69;25.48
56658;BME280;42530;52.240;19.354;2022-08-19T12:00:06;53005.03;;;-144.69;25.97
56658;BME280;42530;52.240;19.354;2022-08-19T12:02:33;52998.78;;;-144.69;25.58
56658;BME280;42530;52.240;19.354;2022-08-19T12:04:59;53002.94;;;-144.69;25.14
56658;BME280;42530;52.240;19.354;2022-08-19T12:07:26;53021.66;;;-144.69;25.76
56658;BME280;42530;52.240;19.354;2022-08-19T12:09:52;53017.50;;;-144.69;26.20
56658;BME280;42530;52.240;19.354;2022-08-19T12:12:17;53023.75;;;-144.69;26.03
56658;BME280;42530;52.240;19.354;2022-08-19T12:14:43;53023.75;;;-144.69;25.92
56658;BME280;42530;52.240;19.354;2022-08-19T12:17:08;53015.44;;;-144.69;26.13
56658;BME280;42530;52.240;19.354;2022-08-19T12:19:36;52973.81;;;-144.69;26.59
56658;BME280;42530;52.240;19.354;2022-08-19T12:22:02;53040.41;;;-144.69;27.11
56658;BME280;42530;52.240;19.354;2022-08-19T12:24:30;52961.34;;;-144.69;26.53
56658;BME280;42530;52.240;19.354;2022-08-19T12:26:56;52990.47;;;-144.69;26.23
56658;BME280;42530;52.240;19.354;2022-08-19T12:29:24;53019.59;;;-144.69;26.35
56658;BME280;42530;52.240;19.354;2022-08-19T12:31:55;53002.94;;;-144.69;25.99
56658;BME280;42530;52.240;19.354;2022-08-19T12:34:29;53019.59;;;-144.69;26.16
56658;BME280;42530;52.240;19.354;2022-08-19T12:36:56;52990.47;;;-144.69;26.46
56658;BME280;42530;52.240;19.354;2022-08-19T12:39:22;52988.38;;;-144.69;25.74
56658;BME280;42530;52.240;19.354;2022-08-19T12:41:48;53002.94;;;-144.69;25.81